Time;durP1;ratioP1;P1;durP2;ratioP2;P2;SDS_P1;SDS_P2;PMS_P1;PMS_P2;Temp;Humidity;BMP_temperature;BMP_pressure;BME280_temperature;BME280_humidity;BME280_pressure;Samples;Min_cycle;Max_cycle;Signal;HPM_P1;HPM_P2
2023/06/27 00:00:18;;;;;;;4.38;1.52;;;;;;;;;;4910786;29;20122;-84
2023/06/27 00:02:46;;;;;;;6.72;1.73;;;;;;;;;;4905598;29;20035;-83
2023/06/27 00:05:12;;;;;;;3.55;1.45;;;;;;;;;;4924965;28;20123;-84
2023/06/27 00:07:43;;;;;;;7.50;1.70;;;;;;;;;;4913501;28;20214;-84
2023/06/27 00:10:10;;;;;;;6.13;1.70;;;;;;;;;;4927566;28;20036;-83
2023/06/27 00:12:36;;;;;;;4.13;1.60;;;;;;;;;;4908777;28;20028;-84
2023/06/27 00:15:05;;;;;;;6.28;1.85;;;;;;;;;;4928616;28;20634;-83
2023/06/27 00:17:32;;;;;;;3.45;1.45;;;;;;;;;;4928311;28;20039;-84
2023/06/27 00:19:59;;;;;;;4.25;2.15;;;;;;;;;;4913222;28;20200;-83
2023/06/27 00:22:26;;;;;;;4.70;1.70;;;;;;;;;;4912721;28;20035;-84
2023/06/27 00:24:52;;;;;;;7.93;1.70;;;;;;;;;;4921759;29;20249;-84
2023/06/27 00:27:17;;;;;;;4.72;1.63;;;;;;;;;;4924224;28;20555;-83
2023/06/27 00:29:43;;;;;;;6.32;1.83;;;;;;;;;;4917806;28;20040;-83
2023/06/27 00:32:09;;;;;;;5.75;1.70;;;;;;;;;;4911351;28;20039;-84
2023/06/27 00:34:34;;;;;;;6.63;1.60;;;;;;;;;;4906485;28;20051;-84
2023/06/27 00:37:00;;;;;;;6.13;1.95;;;;;;;;;;4928740;28;20545;-84
2023/06/27 00:39:25;;;;;;;4.05;1.60;;;;;;;;;;4912871;28;20043;-84
2023/06/27 00:41:54;;;;;;;4.78;1.65;;;;;;;;;;4905668;28;20380;-83
2023/06/27 00:44:22;;;;;;;5.63;1.90;;;;;;;;;;4916772;29;20404;-84
2023/06/27 00:46:49;;;;;;;5.65;1.63;;;;;;;;;;4912456;29;20066;-84
2023/06/27 00:49:16;;;;;;;4.70;1.80;;;;;;;;;;4903407;29;20025;-83
2023/06/27 00:51:41;;;;;;;6.38;1.85;;;;;;;;;;4911919;28;20515;-83
2023/06/27 00:54:07;;;;;;;4.70;1.73;;;;;;;;;;4892999;28;20074;-84
2023/06/27 00:56:33;;;;;;;4.63;1.77;;;;;;;;;;4915917;28;20035;-84
2023/06/27 00:59:01;;;;;;;4.40;1.73;;;;;;;;;;4914405;28;20063;-84
2023/06/27 01:01:29;;;;;;;5.90;1.90;;;;;;;;;;4911416;28;20115;-84
2023/06/27 01:03:55;;;;;;;7.32;2.35;;;;;;;;;;4905585;29;20403;-84
2023/06/27 01:06:58;;;;;;;7.00;2.08;;;;;;;;;;4931200;28;20032;-84
2023/06/27 01:09:33;;;;;;;8.55;1.80;;;;;;;;;;4919817;28;20571;-84
2023/06/27 01:12:14;;;;;;;7.93;2.00;;;;;;;;;;4908625;28;20092;-83
2023/06/27 01:14:40;;;;;;;6.13;2.30;;;;;;;;;;4938398;28;20051;-84
2023/06/27 01:17:08;;;;;;;10.45;2.20;;;;;;;;;;4915198;28;20035;-84
2023/06/27 01:19:34;;;;;;;6.18;1.90;;;;;;;;;;4913154;28;20039;-84
2023/06/27 01:22:03;;;;;;;6.35;2.00;;;;;;;;;;4914232;28;20110;-84
2023/06/27 01:24:29;;;;;;;7.97;2.20;;;;;;;;;;4914419;29;20036;-85
2023/06/27 01:26:55;;;;;;;6.38;2.15;;;;;;;;;;4928059;28;20055;-83
2023/06/27 01:29:20;;;;;;;6.75;1.92;;;;;;;;;;4928774;28;20131;-84
2023/06/27 01:32:15;;;;;;;8.05;1.80;;;;;;;;;;4917490;29;20102;-84
2023/06/27 01:34:57;;;;;;;5.63;1.90;;;;;;;;;;4914041;28;20077;-84
2023/06/27 01:37:31;;;;;;;9.32;2.53;;;;;;;;;;4909871;28;20043;-84
2023/06/27 01:40:08;;;;;;;6.47;2.10;;;;;;;;;;4917756;29;20127;-84
2023/06/27 01:42:42;;;;;;;5.82;2.33;;;;;;;;;;4913169;28;20028;-84
2023/06/27 01:45:10;;;;;;;6.53;2.10;;;;;;;;;;4929967;28;20032;-84
2023/06/27 01:47:39;;;;;;;7.28;2.10;;;;;;;;;;4929707;28;20550;-84
2023/06/27 01:50:05;;;;;;;8.05;2.13;;;;;;;;;;4908671;29;20546;-83
2023/06/27 01:52:31;;;;;;;8.35;2.58;;;;;;;;;;4902552;28;20032;-83
2023/06/27 01:54:56;;;;;;;7.55;2.75;;;;;;;;;;4903219;28;20443;-83
2023/06/27 01:57:21;;;;;;;8.18;2.88;;;;;;;;;;4927443;28;20028;-82
2023/06/27 01:59:47;;;;;;;7.70;2.22;;;;;;;;;;4913305;29;20040;-83
2023/06/27 02:02:12;;;;;;;6.65;2.08;;;;;;;;;;4902994;29;20511;-83
2023/06/27 02:04:38;;;;;;;10.40;2.10;;;;;;;;;;4928945;28;20182;-83
2023/06/27 02:07:03;;;;;;;4.97;2.22;;;;;;;;;;4909844;28;20070;-83
2023/06/27 02:09:29;;;;;;;7.32;2.70;;;;;;;;;;4903797;28;20038;-83
2023/06/27 02:11:54;;;;;;;8.80;2.40;;;;;;;;;;4905256;28;20095;-83
2023/06/27 02:14:20;;;;;;;8.27;2.60;;;;;;;;;;4915806;29;20047;-84
2023/06/27 02:16:45;;;;;;;4.82;2.05;;;;;;;;;;4901640;29;20070;-83
2023/06/27 02:19:31;;;;;;;7.60;2.75;;;;;;;;;;4913496;28;20035;-83
2023/06/27 02:21:56;;;;;;;6.22;2.40;;;;;;;;;;4860504;29;20041;-83
2023/06/27 02:24:22;;;;;;;8.25;2.70;;;;;;;;;;4854543;29;20048;-83
2023/06/27 02:26:47;;;;;;;5.50;2.40;;;;;;;;;;4853567;29;20544;-84
2023/06/27 02:29:13;;;;;;;9.75;2.63;;;;;;;;;;4853937;29;20041;-83
2023/06/27 02:31:38;;;;;;;9.20;2.70;;;;;;;;;;4854269;29;20077;-84
2023/06/27 02:34:04;;;;;;;6.43;2.30;;;;;;;;;;4853770;29;20048;-83
2023/06/27 02:36:32;;;;;;;5.75;2.50;;;;;;;;;;4853869;29;20039;-83
2023/06/27 02:39:00;;;;;;;9.40;2.92;;;;;;;;;;4854856;29;20564;-83
2023/06/27 02:41:26;;;;;;;8.80;2.90;;;;;;;;;;4854134;29;20592;-84
2023/06/27 02:43:52;;;;;;;7.15;2.53;;;;;;;;;;4830614;29;20112;-82
2023/06/27 02:46:17;;;;;;;6.22;2.67;;;;;;;;;;4854080;29;20040;-82
2023/06/27 02:48:43;;;;;;;9.30;2.80;;;;;;;;;;4854792;29;20045;-83
2023/06/27 02:51:08;;;;;;;6.68;2.50;;;;;;;;;;4845157;29;20874;-83
2023/06/27 02:53:34;;;;;;;6.03;2.70;;;;;;;;;;4845599;29;20049;-83
2023/06/27 02:56:02;;;;;;;7.80;2.83;;;;;;;;;;4829790;29;20101;-82
2023/06/27 02:58:31;;;;;;;8.02;2.45;;;;;;;;;;4870131;28;20539;-83
2023/06/27 03:00:59;;;;;;;5.30;2.35;;;;;;;;;;4924284;28;20072;-82
2023/06/27 03:03:25;;;;;;;7.25;2.70;;;;;;;;;;4923359;28;20038;-83
2023/06/27 03:05:50;;;;;;;7.80;2.70;;;;;;;;;;4925367;28;20043;-83
2023/06/27 03:08:16;;;;;;;9.30;2.40;;;;;;;;;;4913287;29;20039;-83
2023/06/27 03:10:42;;;;;;;9.25;2.60;;;;;;;;;;4915987;28;20032;-82
2023/06/27 03:13:07;;;;;;;9.60;2.80;;;;;;;;;;4925651;28;20032;-82
2023/06/27 03:15:33;;;;;;;9.40;2.65;;;;;;;;;;4925621;28;20114;-82
2023/06/27 03:17:58;;;;;;;8.25;2.80;;;;;;;;;;4911500;28;20510;-82
2023/06/27 03:20:24;;;;;;;9.60;3.13;;;;;;;;;;4908521;28;20043;-83
2023/06/27 03:22:49;;;;;;;8.75;2.95;;;;;;;;;;4911134;29;20032;-83
2023/06/27 03:25:14;;;;;;;5.18;2.25;;;;;;;;;;4909646;28;20067;-84
2023/06/27 03:27:43;;;;;;;8.32;2.58;;;;;;;;;;4918547;28;21254;-84
2023/06/27 03:30:09;;;;;;;10.73;2.55;;;;;;;;;;4902997;28;20039;-83
2023/06/27 03:32:34;;;;;;;7.47;2.42;;;;;;;;;;4890640;28;20040;-84
2023/06/27 03:35:00;;;;;;;5.85;2.38;;;;;;;;;;4912133;29;20102;-85
2023/06/27 03:37:26;;;;;;;6.47;2.40;;;;;;;;;;4896556;28;20514;-84
2023/06/27 03:39:52;;;;;;;7.43;2.50;;;;;;;;;;4910528;29;20199;-83
2023/06/27 03:42:17;;;;;;;7.70;2.97;;;;;;;;;;4922264;29;20032;-84
2023/06/27 03:44:43;;;;;;;8.73;2.55;;;;;;;;;;4913708;28;20190;-84
2023/06/27 03:47:08;;;;;;;8.20;2.58;;;;;;;;;;4911739;28;20451;-83
2023/06/27 03:49:34;;;;;;;8.35;2.33;;;;;;;;;;4910953;28;20083;-83
2023/06/27 03:51:59;;;;;;;7.88;2.45;;;;;;;;;;4912249;28;20523;-84
2023/06/27 03:54:28;;;;;;;9.07;2.80;;;;;;;;;;4914490;28;20151;-85
2023/06/27 03:56:53;;;;;;;7.88;2.78;;;;;;;;;;4916328;28;20122;-83
2023/06/27 03:59:19;;;;;;;8.85;2.72;;;;;;;;;;4904229;29;20111;-83
2023/06/27 04:01:44;;;;;;;7.75;2.50;;;;;;;;;;4910327;28;20039;-83
2023/06/27 04:04:12;;;;;;;8.38;2.55;;;;;;;;;;4917510;28;20047;-84
2023/06/27 04:06:37;;;;;;;5.72;2.05;;;;;;;;;;4923661;28;20031;-85
2023/06/27 04:09:03;;;;;;;7.78;2.47;;;;;;;;;;4931251;28;20039;-84
2023/06/27 04:11:45;;;;;;;7.95;3.03;;;;;;;;;;4914167;28;20035;-84
2023/06/27 04:14:10;;;;;;;8.32;2.55;;;;;;;;;;4915642;28;20095;-84
2023/06/27 04:16:36;;;;;;;5.85;2.25;;;;;;;;;;4899884;28;20044;-85
2023/06/27 04:19:12;;;;;;;8.50;2.60;;;;;;;;;;4916984;28;20039;-84
2023/06/27 04:21:37;;;;;;;7.60;2.60;;;;;;;;;;4892859;29;20420;-89
2023/06/27 04:24:12;;;;;;;8.45;2.20;;;;;;;;;;4900532;28;20032;-90
2023/06/27 04:26:37;;;;;;;8.35;2.70;;;;;;;;;;4894944;28;20448;-84
2023/06/27 04:29:04;;;;;;;10.63;2.92;;;;;;;;;;4914426;28;20106;-81
2023/06/27 04:31:29;;;;;;;13.40;2.42;;;;;;;;;;4920878;28;20044;-82
2023/06/27 04:33:59;;;;;;;10.70;2.72;;;;;;;;;;4915126;28;20114;-83
2023/06/27 04:36:26;;;;;;;7.93;2.20;;;;;;;;;;4905722;28;20032;-82
2023/06/27 04:38:51;;;;;;;8.98;2.33;;;;;;;;;;4925058;28;20142;-80
2023/06/27 04:41:17;;;;;;;9.77;2.53;;;;;;;;;;4926106;28;20147;-80
2023/06/27 04:43:42;;;;;;;11.93;2.55;;;;;;;;;;4911623;29;20040;-80
2023/06/27 04:46:08;;;;;;;7.13;2.42;;;;;;;;;;4912793;28;20744;-81
2023/06/27 04:48:33;;;;;;;7.78;2.53;;;;;;;;;;4918105;29;20071;-81
2023/06/27 04:50:58;;;;;;;8.63;2.72;;;;;;;;;;4911819;28;20066;-81
2023/06/27 04:53:26;;;;;;;9.98;2.38;;;;;;;;;;4914946;28;20585;-81
2023/06/27 04:55:53;;;;;;;10.05;2.35;;;;;;;;;;4918159;28;20040;-80
2023/06/27 04:58:19;;;;;;;14.32;2.65;;;;;;;;;;4918296;29;20047;-81
2023/06/27 05:00:47;;;;;;;11.70;2.38;;;;;;;;;;4911162;29;20046;-80
2023/06/27 05:03:15;;;;;;;7.75;2.13;;;;;;;;;;4923618;29;20069;-80
2023/06/27 05:05:43;;;;;;;8.45;2.10;;;;;;;;;;4915647;28;20452;-80
2023/06/27 05:08:10;;;;;;;7.05;2.10;;;;;;;;;;4914069;28;20119;-81
2023/06/27 05:10:35;;;;;;;11.00;2.50;;;;;;;;;;4911029;28;20616;-81
2023/06/27 05:13:01;;;;;;;9.68;2.10;;;;;;;;;;4932272;28;20094;-81
2023/06/27 05:15:27;;;;;;;9.80;2.38;;;;;;;;;;4909870;28;20039;-81
2023/06/27 05:18:15;;;;;;;12.88;2.50;;;;;;;;;;4899076;28;20586;-80
2023/06/27 05:20:41;;;;;;;9.20;2.13;;;;;;;;;;4917579;28;20839;-81
2023/06/27 05:23:06;;;;;;;9.68;2.58;;;;;;;;;;4912863;28;20035;-80
2023/06/27 05:25:32;;;;;;;5.55;2.03;;;;;;;;;;4911836;28;20153;-81
2023/06/27 05:27:58;;;;;;;8.43;2.30;;;;;;;;;;4922833;28;20043;-81
2023/06/27 05:30:24;;;;;;;9.13;2.13;;;;;;;;;;4906558;28;20111;-81
2023/06/27 05:32:50;;;;;;;10.15;2.92;;;;;;;;;;4911333;29;20059;-81
2023/06/27 05:35:15;;;;;;;11.55;2.55;;;;;;;;;;4931811;28;20475;-81
2023/06/27 05:37:44;;;;;;;7.45;2.10;;;;;;;;;;4908297;29;20099;-82
2023/06/27 05:40:09;;;;;;;8.70;1.80;;;;;;;;;;4928680;28;20134;-82
2023/06/27 05:42:38;;;;;;;8.32;1.83;;;;;;;;;;4906522;28;20175;-87
2023/06/27 05:45:07;;;;;;;9.18;1.80;;;;;;;;;;4903258;28;20098;-88
2023/06/27 05:47:32;;;;;;;5.70;1.70;;;;;;;;;;4930548;28;20038;-87
2023/06/27 05:49:57;;;;;;;7.97;2.10;;;;;;;;;;4901485;29;20388;-85
2023/06/27 05:52:23;;;;;;;8.43;2.35;;;;;;;;;;4910992;28;20040;-86
2023/06/27 05:54:49;;;;;;;7.60;2.42;;;;;;;;;;4916570;29;20388;-85
2023/06/27 05:57:15;;;;;;;8.43;2.05;;;;;;;;;;4916847;29;20400;-81
2023/06/27 05:59:40;;;;;;;8.25;2.03;;;;;;;;;;4927729;28;20047;-81
2023/06/27 06:02:06;;;;;;;9.13;2.10;;;;;;;;;;4906048;28;20059;-82
2023/06/27 06:04:31;;;;;;;6.47;1.80;;;;;;;;;;4908802;28;20051;-82
2023/06/27 06:06:58;;;;;;;11.25;2.10;;;;;;;;;;4911429;28;20032;-83
2023/06/27 06:09:24;;;;;;;9.48;2.15;;;;;;;;;;4909166;29;20032;-83
2023/06/27 06:11:50;;;;;;;6.22;2.13;;;;;;;;;;4926528;29;20080;-82
2023/06/27 06:14:15;;;;;;;7.25;1.83;;;;;;;;;;4913055;29;20063;-81
2023/06/27 06:16:41;;;;;;;7.63;1.98;;;;;;;;;;4928567;28;20195;-82
2023/06/27 06:19:07;;;;;;;7.45;1.75;;;;;;;;;;4909229;28;20039;-82
2023/06/27 06:21:33;;;;;;;7.45;1.92;;;;;;;;;;4914744;28;20080;-83
2023/06/27 06:23:58;;;;;;;9.13;1.80;;;;;;;;;;4909069;28;20067;-84
2023/06/27 06:26:24;;;;;;;7.50;1.60;;;;;;;;;;4912393;28;20047;-83
2023/06/27 06:28:49;;;;;;;11.05;2.65;;;;;;;;;;4910064;29;20492;-83
2023/06/27 06:31:16;;;;;;;7.93;1.70;;;;;;;;;;4918561;29;20039;-82
2023/06/27 06:33:42;;;;;;;8.35;1.40;;;;;;;;;;4913823;28;20074;-82
2023/06/27 06:36:08;;;;;;;7.25;1.67;;;;;;;;;;4907220;28;20044;-83
2023/06/27 06:38:33;;;;;;;8.20;1.90;;;;;;;;;;4924368;28;20043;-82
2023/06/27 06:40:59;;;;;;;5.85;1.40;;;;;;;;;;4900288;28;20302;-83
2023/06/27 06:43:25;;;;;;;8.68;1.45;;;;;;;;;;4912866;29;20126;-83
2023/06/27 06:45:51;;;;;;;9.25;1.83;;;;;;;;;;4913263;29;20044;-82
2023/06/27 06:48:19;;;;;;;6.47;1.85;;;;;;;;;;4927281;29;20060;-83
2023/06/27 06:51:05;;;;;;;7.18;1.42;;;;;;;;;;4902627;29;20039;-83
2023/06/27 06:53:30;;;;;;;8.40;1.70;;;;;;;;;;4898592;29;20043;-82
2023/06/27 06:55:55;;;;;;;7.65;1.48;;;;;;;;;;4891712;29;20036;-83
2023/06/27 06:58:21;;;;;;;9.43;1.83;;;;;;;;;;4875925;29;20562;-82
2023/06/27 07:00:49;;;;;;;7.95;1.70;;;;;;;;;;4894695;29;20524;-84
2023/06/27 07:03:26;;;;;;;5.40;1.30;;;;;;;;;;4885673;29;20135;-83
2023/06/27 07:05:51;;;;;;;7.53;1.48;;;;;;;;;;4879466;29;20048;-82
2023/06/27 07:08:19;;;;;;;6.45;1.38;;;;;;;;;;4874443;29;20068;-84
2023/06/27 07:11:05;;;;;;;8.90;1.60;;;;;;;;;;4875124;29;20102;-84
2023/06/27 07:13:30;;;;;;;5.22;1.15;;;;;;;;;;4871446;29;20069;-84
2023/06/27 07:15:55;;;;;;;5.43;1.10;;;;;;;;;;4852881;29;20080;-83
2023/06/27 07:18:21;;;;;;;6.95;1.15;;;;;;;;;;4838439;29;20053;-84
2023/06/27 07:20:46;;;;;;;9.05;1.45;;;;;;;;;;4838141;29;20045;-83
2023/06/27 07:23:12;;;;;;;6.00;1.20;;;;;;;;;;4854864;29;20041;-84
2023/06/27 07:25:38;;;;;;;5.15;1.23;;;;;;;;;;4843212;29;20044;-83
2023/06/27 07:28:07;;;;;;;7.53;1.17;;;;;;;;;;4854157;29;20425;-83
2023/06/27 07:30:32;;;;;;;5.50;1.33;;;;;;;;;;4862772;29;20491;-82
2023/06/27 07:33:01;;;;;;;6.15;1.27;;;;;;;;;;4872008;29;20049;-82
2023/06/27 07:35:28;;;;;;;7.30;1.23;;;;;;;;;;4854939;29;20123;-82
2023/06/27 07:37:54;;;;;;;4.95;1.08;;;;;;;;;;4850999;29;20694;-83
2023/06/27 07:40:19;;;;;;;6.03;1.25;;;;;;;;;;4856674;29;20041;-81
2023/06/27 07:42:45;;;;;;;5.07;1.08;;;;;;;;;;4855730;29;20036;-82
2023/06/27 07:45:10;;;;;;;7.05;1.20;;;;;;;;;;4873841;29;20853;-82
2023/06/27 07:47:36;;;;;;;7.35;1.30;;;;;;;;;;4870345;29;20051;-84
2023/06/27 07:50:01;;;;;;;6.13;1.13;;;;;;;;;;4870878;28;20043;-84
2023/06/27 07:52:27;;;;;;;6.43;1.27;;;;;;;;;;4902601;28;20069;-84
2023/06/27 07:54:53;;;;;;;5.38;1.10;;;;;;;;;;4913519;28;20463;-84
2023/06/27 07:57:18;;;;;;;5.50;1.20;;;;;;;;;;4930056;28;20027;-81
2023/06/27 07:59:44;;;;;;;5.07;1.30;;;;;;;;;;4925788;29;20032;-84
2023/06/27 08:02:09;;;;;;;4.07;0.93;;;;;;;;;;4911760;28;20046;-84
2023/06/27 08:04:35;;;;;;;5.15;1.15;;;;;;;;;;4917549;29;20044;-83
2023/06/27 08:07:01;;;;;;;5.32;1.25;;;;;;;;;;4908531;28;20036;-84
2023/06/27 08:09:26;;;;;;;3.65;0.90;;;;;;;;;;4925219;29;20123;-81
2023/06/27 08:11:54;;;;;;;3.92;0.80;;;;;;;;;;4910839;28;20043;-83
2023/06/27 08:14:19;;;;;;;5.57;0.87;;;;;;;;;;4928614;29;20032;-83
2023/06/27 08:16:45;;;;;;;7.80;1.17;;;;;;;;;;4909071;28;20267;-83
2023/06/27 08:19:10;;;;;;;4.18;1.02;;;;;;;;;;4912019;28;20058;-83
2023/06/27 08:21:35;;;;;;;4.50;0.70;;;;;;;;;;4913450;28;20043;-83
2023/06/27 08:24:01;;;;;;;4.20;0.80;;;;;;;;;;4914509;28;20032;-83
2023/06/27 08:26:26;;;;;;;6.10;1.20;;;;;;;;;;4929517;29;20103;-83
2023/06/27 08:28:52;;;;;;;4.72;1.05;;;;;;;;;;4920416;28;20397;-81
2023/06/27 08:31:18;;;;;;;6.63;1.20;;;;;;;;;;4913153;29;20054;-84
2023/06/27 08:33:43;;;;;;;5.53;1.10;;;;;;;;;;4914156;28;20059;-84
2023/06/27 08:36:09;;;;;;;4.45;1.10;;;;;;;;;;4911826;28;20458;-85
2023/06/27 08:38:35;;;;;;;5.47;0.90;;;;;;;;;;4912638;28;20035;-82
2023/06/27 08:41:01;;;;;;;2.60;0.80;;;;;;;;;;4920858;28;20062;-83
2023/06/27 08:43:26;;;;;;;4.78;0.90;;;;;;;;;;4904439;28;20072;-83
2023/06/27 08:45:54;;;;;;;6.65;1.00;;;;;;;;;;4905156;28;20523;-82
2023/06/27 08:48:19;;;;;;;6.35;1.23;;;;;;;;;;4906000;29;20067;-82
2023/06/27 08:50:45;;;;;;;3.22;0.80;;;;;;;;;;4929441;28;20122;-83
2023/06/27 08:53:17;;;;;;;3.67;0.82;;;;;;;;;;4912111;28;20495;-83
2023/06/27 08:56:04;;;;;;;2.85;0.93;;;;;;;;;;4906045;28;20048;-83
2023/06/27 08:59:01;;;;;;;4.45;0.90;;;;;;;;;;4929535;28;20078;-83
2023/06/27 09:01:28;;;;;;;3.75;0.90;;;;;;;;;;4925637;28;20492;-83
2023/06/27 09:03:53;;;;;;;2.97;0.77;;;;;;;;;;4937931;28;20519;-83
2023/06/27 09:06:18;;;;;;;6.63;1.05;;;;;;;;;;4921606;28;20036;-84
2023/06/27 09:08:44;;;;;;;5.30;1.00;;;;;;;;;;4915731;28;20059;-84
2023/06/27 09:11:09;;;;;;;3.08;0.80;;;;;;;;;;4902492;29;20088;-83
2023/06/27 09:13:38;;;;;;;5.28;1.00;;;;;;;;;;4911977;29;20156;-82
2023/06/27 09:16:06;;;;;;;3.35;0.85;;;;;;;;;;4913153;28;20460;-83
2023/06/27 09:18:33;;;;;;;;;;;;;;;;;;4926686;28;20059;-82
2023/06/27 09:20:59;;;;;;;4.43;1.00;;;;;;;;;;4892200;29;19919;-83
2023/06/27 09:23:27;;;;;;;4.70;1.10;;;;;;;;;;4916149;28;20062;-83
2023/06/27 09:26:12;;;;;;;4.35;1.20;;;;;;;;;;4911707;28;20513;-82
2023/06/27 09:28:50;;;;;;;5.57;0.90;;;;;;;;;;4911930;28;20496;-82
2023/06/27 09:31:21;;;;;;;3.97;0.98;;;;;;;;;;4926011;28;20043;-83
2023/06/27 09:33:50;;;;;;;4.18;0.90;;;;;;;;;;4918893;28;20126;-83
2023/06/27 09:36:32;;;;;;;5.00;0.93;;;;;;;;;;4925268;28;20044;-81
2023/06/27 09:39:01;;;;;;;4.88;1.00;;;;;;;;;;4913056;28;20167;-82
2023/06/27 09:41:38;;;;;;;2.72;0.80;;;;;;;;;;4929520;28;20047;-84
2023/06/27 09:44:04;;;;;;;4.03;0.80;;;;;;;;;;4922559;28;20445;-84
2023/06/27 09:46:30;;;;;;;3.92;1.02;;;;;;;;;;4921578;28;20086;-85
2023/06/27 09:48:55;;;;;;;2.75;0.80;;;;;;;;;;4902044;28;20040;-84
2023/06/27 09:51:24;;;;;;;6.03;1.02;;;;;;;;;;4912627;28;20409;-86
2023/06/27 09:53:53;;;;;;;2.25;0.68;;;;;;;;;;4919627;29;20527;-83
2023/06/27 09:56:28;;;;;;;2.70;0.60;;;;;;;;;;4905672;29;20036;-85
2023/06/27 09:58:55;;;;;;;2.35;0.57;;;;;;;;;;4902098;28;20092;-84
2023/06/27 10:01:22;;;;;;;2.83;0.60;;;;;;;;;;4905717;29;20372;-84
2023/06/27 10:03:50;;;;;;;3.65;1.00;;;;;;;;;;4913047;29;20150;-84
2023/06/27 10:06:16;;;;;;;4.25;0.80;;;;;;;;;;4919204;29;20059;-84
2023/06/27 10:08:42;;;;;;;4.60;0.73;;;;;;;;;;4928718;28;20051;-84
2023/06/27 10:11:07;;;;;;;3.40;0.70;;;;;;;;;;4912533;29;20400;-82
2023/06/27 10:13:33;;;;;;;3.08;0.73;;;;;;;;;;4911708;28;20040;-85
2023/06/27 10:15:59;;;;;;;4.90;0.82;;;;;;;;;;4905175;28;20028;-79
2023/06/27 10:18:25;;;;;;;3.63;0.90;;;;;;;;;;4920103;28;20036;-79
2023/06/27 10:20:53;;;;;;;6.18;0.90;;;;;;;;;;4916353;29;20095;-79
2023/06/27 10:23:19;;;;;;;3.92;1.15;;;;;;;;;;4906294;29;20035;-80
2023/06/27 10:25:44;;;;;;;4.13;0.90;;;;;;;;;;4912353;28;20035;-79
2023/06/27 10:28:13;;;;;;;4.32;1.00;;;;;;;;;;4909861;29;20077;-79
2023/06/27 10:30:44;;;;;;;3.17;0.98;;;;;;;;;;4908937;28;20047;-80
2023/06/27 10:33:18;;;;;;;4.22;0.90;;;;;;;;;;4929029;29;20044;-80
2023/06/27 10:35:51;;;;;;;4.07;0.88;;;;;;;;;;4924227;28;20035;-80
2023/06/27 10:38:18;;;;;;;4.00;0.90;;;;;;;;;;4919726;29;20484;-79
2023/06/27 10:41:06;;;;;;;4.68;0.80;;;;;;;;;;4926982;28;20042;-79
2023/06/27 10:43:47;;;;;;;3.30;0.70;;;;;;;;;;4916345;29;20039;-78
2023/06/27 10:46:23;;;;;;;4.32;0.65;;;;;;;;;;4920275;28;20044;-79
2023/06/27 10:48:54;;;;;;;2.72;0.50;;;;;;;;;;4921355;29;20467;-78
2023/06/27 10:51:24;;;;;;;2.72;0.60;;;;;;;;;;4927415;29;20094;-79
2023/06/27 10:54:08;;;;;;;2.53;0.80;;;;;;;;;;4920383;29;20040;-78
2023/06/27 10:56:38;;;;;;;2.63;0.88;;;;;;;;;;4920093;28;20504;-78
2023/06/27 10:59:08;;;;;;;1.90;0.70;;;;;;;;;;4924366;28;20043;-79
2023/06/27 11:01:34;;;;;;;2.78;0.90;;;;;;;;;;4929807;28;20036;-79
2023/06/27 11:04:00;;;;;;;4.05;0.90;;;;;;;;;;4913893;28;20140;-80
2023/06/27 11:06:39;;;;;;;2.90;0.80;;;;;;;;;;4925850;28;20032;-78
2023/06/27 11:09:07;;;;;;;3.40;1.00;;;;;;;;;;4902539;28;20032;-79
2023/06/27 11:11:34;;;;;;;4.45;0.60;;;;;;;;;;4909554;28;20114;-80
2023/06/27 11:14:08;;;;;;;3.13;0.70;;;;;;;;;;4911219;28;20043;-80
2023/06/27 11:16:34;;;;;;;1.77;0.50;;;;;;;;;;4926033;28;20031;-80
2023/06/27 11:19:01;;;;;;;8.70;3.35;;;;;;;;;;4911693;28;20167;-80
2023/06/27 11:21:27;;;;;;;2.47;0.50;;;;;;;;;;4911956;28;20032;-80
2023/06/27 11:23:57;;;;;;;1.98;0.55;;;;;;;;;;4909426;28;20043;-81
2023/06/27 11:26:22;;;;;;;3.60;1.10;;;;;;;;;;4899001;28;20068;-80
2023/06/27 11:28:48;;;;;;;1.63;0.40;;;;;;;;;;4927790;29;20038;-80
2023/06/27 11:31:13;;;;;;;3.10;0.77;;;;;;;;;;4909909;29;20152;-81
2023/06/27 11:33:41;;;;;;;2.90;0.47;;;;;;;;;;4908909;28;20123;-80
2023/06/27 11:36:08;;;;;;;2.65;0.50;;;;;;;;;;4926592;28;20040;-80
2023/06/27 11:38:34;;;;;;;2.05;0.47;;;;;;;;;;4917725;28;20159;-80
2023/06/27 11:40:59;;;;;;;2.72;0.47;;;;;;;;;;4927809;28;20127;-79
2023/06/27 11:43:25;;;;;;;4.13;0.73;;;;;;;;;;4908541;28;20066;-80
2023/06/27 11:45:57;;;;;;;1.48;0.50;;;;;;;;;;4927625;28;20086;-79
2023/06/27 11:48:23;;;;;;;2.17;0.60;;;;;;;;;;4905767;28;20243;-79
2023/06/27 11:50:55;;;;;;;3.28;0.65;;;;;;;;;;4927276;29;20151;-79
2023/06/27 11:53:23;;;;;;;3.33;0.60;;;;;;;;;;4921756;29;20051;-80
2023/06/27 11:55:48;;;;;;;2.53;0.52;;;;;;;;;;4930465;28;20419;-80
2023/06/27 11:58:15;;;;;;;2.78;0.50;;;;;;;;;;4908329;28;20043;-79
2023/06/27 12:00:41;;;;;;;;;;;;;;;;;;4927267;28;20043;-78
2023/06/27 12:03:07;;;;;;;2.07;0.60;;;;;;;;;;4929444;28;19926;-79
2023/06/27 12:05:33;;;;;;;2.35;0.55;;;;;;;;;;4913033;28;20788;-79
2023/06/27 12:08:06;;;;;;;4.32;0.77;;;;;;;;;;4915354;28;20035;-79
2023/06/27 12:10:52;;;;;;;2.85;0.70;;;;;;;;;;4922952;28;20063;-81
2023/06/27 12:13:17;;;;;;;3.03;0.57;;;;;;;;;;4926373;28;20476;-79
2023/06/27 12:15:44;;;;;;;3.25;0.98;;;;;;;;;;4926425;28;20047;-79
2023/06/27 12:18:11;;;;;;;2.85;0.68;;;;;;;;;;4928771;28;20571;-80
2023/06/27 12:20:41;;;;;;;3.33;1.00;;;;;;;;;;4912045;28;20035;-80
2023/06/27 12:23:07;;;;;;;2.08;0.60;;;;;;;;;;4922346;28;20065;-81
2023/06/27 12:25:33;;;;;;;3.13;0.50;;;;;;;;;;4922414;28;20462;-81
2023/06/27 12:27:58;;;;;;;2.03;0.60;;;;;;;;;;4912122;28;20040;-80
2023/06/27 12:30:23;;;;;;;1.83;0.60;;;;;;;;;;4943872;28;20036;-80
2023/06/27 12:32:49;;;;;;;1.67;0.50;;;;;;;;;;4913030;29;20044;-81
2023/06/27 12:35:17;;;;;;;1.88;0.60;;;;;;;;;;4911038;28;20058;-80
2023/06/27 12:37:44;;;;;;;2.80;0.73;;;;;;;;;;4916564;29;20046;-80
2023/06/27 12:40:11;;;;;;;2.85;0.70;;;;;;;;;;4895980;28;20062;-81
2023/06/27 12:42:37;;;;;;;2.60;0.63;;;;;;;;;;4913350;28;20042;-86
2023/06/27 12:45:02;;;;;;;2.13;0.65;;;;;;;;;;4913843;29;20040;-86
2023/06/27 12:47:28;;;;;;;3.67;0.90;;;;;;;;;;4905736;28;20069;-86
2023/06/27 12:49:53;;;;;;;2.55;0.70;;;;;;;;;;4915228;28;20051;-86
2023/06/27 12:52:19;;;;;;;3.17;0.70;;;;;;;;;;4913721;29;20044;-86
2023/06/27 12:54:44;;;;;;;3.08;0.85;;;;;;;;;;4925157;28;20067;-80
2023/06/27 12:57:12;;;;;;;4.75;1.13;;;;;;;;;;4920917;28;20051;-86
2023/06/27 12:59:37;;;;;;;3.72;1.30;;;;;;;;;;4920294;29;20508;-87
2023/06/27 13:02:03;;;;;;;3.90;1.20;;;;;;;;;;4910328;28;20145;-86
2023/06/27 13:04:31;;;;;;;3.05;1.08;;;;;;;;;;4906461;28;20044;-86
2023/06/27 13:07:00;;;;;;;4.00;0.95;;;;;;;;;;4910182;28;20036;-87
2023/06/27 13:09:39;;;;;;;2.03;0.70;;;;;;;;;;4912072;28;20480;-86
2023/06/27 13:12:05;;;;;;;3.75;0.73;;;;;;;;;;4922551;28;20042;-87
2023/06/27 13:14:39;;;;;;;3.03;0.60;;;;;;;;;;4915282;29;20465;-87
2023/06/27 13:17:04;;;;;;;1.88;0.60;;;;;;;;;;4912062;28;20032;-88
2023/06/27 13:19:31;;;;;;;2.95;0.80;;;;;;;;;;4929720;28;20039;-86
2023/06/27 13:21:56;;;;;;;3.15;0.70;;;;;;;;;;4925521;28;20032;-85
2023/06/27 13:24:22;;;;;;;2.05;0.50;;;;;;;;;;4929820;29;20040;-82
2023/06/27 13:26:48;;;;;;;1.80;0.50;;;;;;;;;;4925699;28;20071;-84
2023/06/27 13:29:15;;;;;;;2.40;0.63;;;;;;;;;;4918740;28;20046;-83
2023/06/27 13:31:42;;;;;;;2.72;0.73;;;;;;;;;;4911666;28;20134;-84
2023/06/27 13:34:10;;;;;;;2.40;0.63;;;;;;;;;;4907045;28;20517;-85
2023/06/27 13:36:36;;;;;;;3.30;0.40;;;;;;;;;;4930648;28;20302;-83
2023/06/27 13:39:04;;;;;;;1.77;0.45;;;;;;;;;;4909218;28;20118;-85
2023/06/27 13:41:30;;;;;;;2.28;0.60;;;;;;;;;;4911929;28;20546;-85
2023/06/27 13:43:55;;;;;;;2.40;0.40;;;;;;;;;;4911875;28;20058;-84
2023/06/27 13:46:21;;;;;;;2.72;0.52;;;;;;;;;;4909983;29;20028;-85
2023/06/27 13:48:47;;;;;;;2.03;0.52;;;;;;;;;;4910936;29;20043;-86
2023/06/27 13:51:12;;;;;;;3.92;0.85;;;;;;;;;;4910946;28;20040;-87
2023/06/27 13:53:58;;;;;;;3.00;0.50;;;;;;;;;;4911331;28;20040;-84
2023/06/27 13:56:23;;;;;;;2.50;0.57;;;;;;;;;;4888466;29;20574;-87
2023/06/27 13:58:51;;;;;;;2.42;0.70;;;;;;;;;;4868931;29;20064;-88
2023/06/27 14:01:16;;;;;;;2.50;0.50;;;;;;;;;;4841662;29;20060;-86
2023/06/27 14:03:45;;;;;;;1.05;0.40;;;;;;;;;;4871599;29;20048;-86
2023/06/27 14:06:10;;;;;;;2.38;0.57;;;;;;;;;;4855503;29;20040;-87
2023/06/27 14:08:36;;;;;;;2.08;0.45;;;;;;;;;;4873899;29;20045;-86
2023/06/27 14:11:04;;;;;;;1.30;0.40;;;;;;;;;;4866871;29;20085;-85
2023/06/27 14:13:30;;;;;;;2.03;0.60;;;;;;;;;;4868082;29;20524;-85
2023/06/27 14:15:55;;;;;;;2.50;0.70;;;;;;;;;;4866285;29;20178;-85
2023/06/27 14:18:21;;;;;;;1.90;0.65;;;;;;;;;;4890163;29;20071;-86
2023/06/27 14:20:46;;;;;;;2.38;0.70;;;;;;;;;;4855613;29;20581;-87
2023/06/27 14:23:11;;;;;;;3.63;0.85;;;;;;;;;;4888938;29;21478;-87
2023/06/27 14:25:37;;;;;;;3.70;0.63;;;;;;;;;;4869957;29;20083;-85
2023/06/27 14:28:03;;;;;;;2.83;0.60;;;;;;;;;;4853243;29;20076;-84
2023/06/27 14:30:29;;;;;;;3.05;0.63;;;;;;;;;;4856754;29;20524;-85
2023/06/27 14:32:56;;;;;;;2.78;0.73;;;;;;;;;;4866756;28;20048;-84
2023/06/27 14:35:42;;;;;;;1.88;0.50;;;;;;;;;;4910819;28;20112;-83
2023/06/27 14:38:08;;;;;;;5.05;0.60;;;;;;;;;;4846536;29;20860;-85
2023/06/27 14:40:34;;;;;;;1.92;0.65;;;;;;;;;;4855346;29;20268;-84
2023/06/27 14:42:59;;;;;;;2.53;0.60;;;;;;;;;;4871020;29;20112;-85
2023/06/27 14:45:24;;;;;;;2.47;0.45;;;;;;;;;;4871184;29;20215;-88